sensor_id;sensor_type;location;lat;lon;timestamp;pressure;altitude;pressure_sealevel;temperature;humidity
3444;BME280;1736;52.068;6.968;2023-04-30T00:00:27;101810.00;;;6.55;100.00
3444;BME280;1736;52.068;6.968;2023-04-30T00:02:54;101816.47;;;6.49;100.00
3444;BME280;1736;52.068;6.968;2023-04-30T00:05:21;101820.94;;;6.47;100.00
3444;BME280;1736;52.068;6.968;2023-04-30T00:07:48;101818.63;;;6.41;100.00
3444;BME280;1736;52.068;6.968;2023-04-30T00:10:14;101809.78;;;6.42;100.00
3444;BME280;1736;52.068;6.968;2023-04-30T00:12:41;101815.31;;;6.36;100.00
3444;BME280;1736;52.068;6.968;2023-04-30T00:15:08;101812.69;;;6.36;100.00
3444;BME280;1736;52.068;6.968;2023-04-30T00:17:35;101821.91;;;6.28;100.00
3444;BME280;1736;52.068;6.968;2023-04-30T00:20:02;101822.19;;;6.22;100.00
3444;BME280;1736;52.068;6.968;2023-04-30T00:22:30;101816.94;;;6.22;100.00
3444;BME280;1736;52.068;6.968;2023-04-30T00:24:57;101818.88;;;6.18;100.00
3444;BME280;1736;52.068;6.968;2023-04-30T00:27:24;101820.63;;;6.18;100.00
3444;BME280;1736;52.068;6.968;2023-04-30T00:29:51;101827.78;;;6.16;100.00
3444;BME280;1736;52.068;6.968;2023-04-30T00:32:17;101823.50;;;6.13;100.00
3444;BME280;1736;52.068;6.968;2023-04-30T00:34:44;101822.19;;;6.22;100.00
3444;BME280;1736;52.068;6.968;2023-04-30T00:37:10;101822.50;;;6.16;100.00
3444;BME280;1736;52.068;6.968;2023-04-30T00:39:38;101822.72;;;6.11;100.00
3444;BME280;1736;52.068;6.968;2023-04-30T00:42:06;101827.34;;;6.06;100.00
3444;BME280;1736;52.068;6.968;2023-04-30T00:44:33;101828.28;;;6.05;100.00
3444;BME280;1736;52.068;6.968;2023-04-30T00:47:00;101826.72;;;6.01;100.00
3444;BME280;1736;52.068;6.968;2023-04-30T00:49:26;101839.03;;;6.01;100.00
3444;BME280;1736;52.068;6.968;2023-04-30T00:51:53;101827.66;;;6.00;100.00
3444;BME280;1736;52.068;6.968;2023-04-30T00:54:20;101823.09;;;6.04;100.00
3444;BME280;1736;52.068;6.968;2023-04-30T00:56:48;101834.50;;;6.04;100.00
3444;BME280;1736;52.068;6.968;2023-04-30T00:59:15;101829.78;;;5.92;100.00
3444;BME280;1736;52.068;6.968;2023-04-30T01:01:42;101827.28;;;5.89;100.00
3444;BME280;1736;52.068;6.968;2023-04-30T01:04:09;101828.50;;;5.82;100.00
3444;BME280;1736;52.068;6.968;2023-04-30T01:06:36;101823.91;;;5.86;100.00
3444;BME280;1736;52.068;6.968;2023-04-30T01:09:09;101829.41;;;5.81;100.00
3444;BME280;1736;52.068;6.968;2023-04-30T01:11:49;101819.78;;;5.80;100.00
3444;BME280;1736;52.068;6.968;2023-04-30T01:14:24;101812.22;;;5.72;100.00
3444;BME280;1736;52.068;6.968;2023-04-30T01:16:59;101818.34;;;5.73;100.00
3444;BME280;1736;52.068;6.968;2023-04-30T01:19:43;101812.44;;;5.68;100.00
3444;BME280;1736;52.068;6.968;2023-04-30T01:22:17;101816.06;;;5.66;100.00
3444;BME280;1736;52.068;6.968;2023-04-30T01:25:04;101813.09;;;5.73;100.00
3444;BME280;1736;52.068;6.968;2023-04-30T01:30:31;101826.75;;;5.63;100.00
3444;BME280;1736;52.068;6.968;2023-04-30T01:32:58;101828.72;;;5.57;100.00
3444;BME280;1736;52.068;6.968;2023-04-30T01:35:39;101834.97;;;5.55;100.00
3444;BME280;1736;52.068;6.968;2023-04-30T01:38:21;101836.13;;;5.49;100.00
3444;BME280;1736;52.068;6.968;2023-04-30T01:40:52;101834.44;;;5.47;100.00
3444;BME280;1736;52.068;6.968;2023-04-30T01:43:33;101839.00;;;5.43;100.00
3444;BME280;1736;52.068;6.968;2023-04-30T01:46:11;101839.34;;;5.36;100.00
3444;BME280;1736;52.068;6.968;2023-04-30T01:48:50;101849.88;;;5.36;100.00
3444;BME280;1736;52.068;6.968;2023-04-30T01:51:23;101843.69;;;5.37;100.00
3444;BME280;1736;52.068;6.968;2023-04-30T01:53:56;101846.50;;;5.32;100.00
3444;BME280;1736;52.068;6.968;2023-04-30T01:56:31;101850.06;;;5.31;100.00
3444;BME280;1736;52.068;6.968;2023-04-30T01:58:58;101853.81;;;5.26;100.00
3444;BME280;1736;52.068;6.968;2023-04-30T02:01:27;101846.97;;;5.22;100.00
3444;BME280;1736;52.068;6.968;2023-04-30T02:03:54;101852.13;;;5.25;100.00
3444;BME280;1736;52.068;6.968;2023-04-30T02:06:21;101849.63;;;5.22;100.00
3444;BME280;1736;52.068;6.968;2023-04-30T02:08:51;101850.66;;;5.18;100.00
3444;BME280;1736;52.068;6.968;2023-04-30T02:11:17;101850.94;;;5.12;100.00
3444;BME280;1736;52.068;6.968;2023-04-30T02:13:43;101851.19;;;5.06;100.00
3444;BME280;1736;52.068;6.968;2023-04-30T02:16:10;101846.22;;;5.00;100.00
3444;BME280;1736;52.068;6.968;2023-04-30T02:18:38;101855.16;;;4.96;100.00
3444;BME280;1736;52.068;6.968;2023-04-30T02:21:04;101859.53;;;4.95;100.00
3444;BME280;1736;52.068;6.968;2023-04-30T02:23:31;101851.72;;;4.94;100.00
3444;BME280;1736;52.068;6.968;2023-04-30T02:25:57;101849.09;;;4.94;100.00
3444;BME280;1736;52.068;6.968;2023-04-30T02:28:31;101848.31;;;4.92;100.00
3444;BME280;1736;52.068;6.968;2023-04-30T02:30:58;101846.72;;;4.88;100.00
3444;BME280;1736;52.068;6.968;2023-04-30T02:33:25;101846.06;;;4.83;100.00
3444;BME280;1736;52.068;6.968;2023-04-30T02:35:52;101854.84;;;4.82;100.00
3444;BME280;1736;52.068;6.968;2023-04-30T02:38:20;101856.81;;;4.77;100.00
3444;BME280;1736;52.068;6.968;2023-04-30T02:41:00;101852.59;;;4.73;100.00
3444;BME280;1736;52.068;6.968;2023-04-30T02:43:27;101855.22;;;4.73;100.00
3444;BME280;1736;52.068;6.968;2023-04-30T02:45:54;101858.03;;;4.70;100.00
3444;BME280;1736;52.068;6.968;2023-04-30T02:48:20;101865.22;;;4.65;100.00
3444;BME280;1736;52.068;6.968;2023-04-30T02:50:47;101856.97;;;4.74;100.00
3444;BME280;1736;52.068;6.968;2023-04-30T02:53:14;101860.72;;;4.68;100.00
3444;BME280;1736;52.068;6.968;2023-04-30T02:55:41;101851.16;;;4.66;100.00
3444;BME280;1736;52.068;6.968;2023-04-30T02:58:07;101853.00;;;4.64;100.00
3444;BME280;1736;52.068;6.968;2023-04-30T03:00:34;101864.44;;;4.63;100.00
3444;BME280;1736;52.068;6.968;2023-04-30T03:03:00;101852.34;;;4.59;100.00
3444;BME280;1736;52.068;6.968;2023-04-30T03:05:28;101861.81;;;4.63;100.00
3444;BME280;1736;52.068;6.968;2023-04-30T03:07:55;101852.06;;;4.65;100.00
3444;BME280;1736;52.068;6.968;2023-04-30T03:10:22;101864.31;;;4.66;100.00
3444;BME280;1736;52.068;6.968;2023-04-30T03:12:49;101855.63;;;4.64;100.00
3444;BME280;1736;52.068;6.968;2023-04-30T03:15:16;101860.88;;;4.64;100.00
3444;BME280;1736;52.068;6.968;2023-04-30T03:17:42;101850.31;;;4.65;100.00
3444;BME280;1736;52.068;6.968;2023-04-30T03:20:10;101846.09;;;4.61;100.00
3444;BME280;1736;52.068;6.968;2023-04-30T03:22:36;101849.81;;;4.56;100.00
3444;BME280;1736;52.068;6.968;2023-04-30T03:25:03;101850.69;;;4.56;100.00
3444;BME280;1736;52.068;6.968;2023-04-30T03:27:31;101846.53;;;4.51;100.00
3444;BME280;1736;52.068;6.968;2023-04-30T03:29:58;101847.38;;;4.51;100.00
3444;BME280;1736;52.068;6.968;2023-04-30T03:32:24;101854.34;;;4.52;100.00
3444;BME280;1736;52.068;6.968;2023-04-30T03:34:51;101855.88;;;4.58;100.00
3444;BME280;1736;52.068;6.968;2023-04-30T03:37:17;101849.88;;;4.54;100.00
3444;BME280;1736;52.068;6.968;2023-04-30T03:39:44;101852.72;;;4.50;100.00
3444;BME280;1736;52.068;6.968;2023-04-30T03:42:10;101846.75;;;4.45;100.00
3444;BME280;1736;52.068;6.968;2023-04-30T03:44:38;101845.06;;;4.44;100.00
3444;BME280;1736;52.068;6.968;2023-04-30T03:47:04;101842.91;;;4.53;100.00
3444;BME280;1736;52.068;6.968;2023-04-30T03:49:31;101846.91;;;4.42;100.00
3444;BME280;1736;52.068;6.968;2023-04-30T03:51:58;101852.34;;;4.37;100.00
3444;BME280;1736;52.068;6.968;2023-04-30T03:54:25;101849.59;;;4.40;100.00
3444;BME280;1736;52.068;6.968;2023-04-30T03:56:51;101855.06;;;4.34;100.00
3444;BME280;1736;52.068;6.968;2023-04-30T03:59:18;101857.09;;;4.28;100.00
3444;BME280;1736;52.068;6.968;2023-04-30T04:01:46;101860.53;;;4.30;100.00
3444;BME280;1736;52.068;6.968;2023-04-30T04:04:12;101851.84;;;4.28;100.00
3444;BME280;1736;52.068;6.968;2023-04-30T04:06:39;101855.50;;;4.24;100.00
3444;BME280;1736;52.068;6.968;2023-04-30T04:09:06;101850.19;;;4.25;100.00
3444;BME280;1736;52.068;6.968;2023-04-30T04:11:32;101849.22;;;4.28;100.00
3444;BME280;1736;52.068;6.968;2023-04-30T04:13:59;101851.78;;;4.29;100.00
3444;BME280;1736;52.068;6.968;2023-04-30T04:16:26;101845.66;;;4.29;100.00
3444;BME280;1736;52.068;6.968;2023-04-30T04:18:53;101855.13;;;4.33;100.00
3444;BME280;1736;52.068;6.968;2023-04-30T04:21:20;101848.72;;;4.40;100.00
3444;BME280;1736;52.068;6.968;2023-04-30T04:23:46;101839.91;;;4.41;100.00
3444;BME280;1736;52.068;6.968;2023-04-30T04:26:13;101847.78;;;4.41;100.00
3444;BME280;1736;52.068;6.968;2023-04-30T04:28:40;101849.53;;;4.42;100.00
3444;BME280;1736;52.068;6.968;2023-04-30T04:31:07;101859.28;;;4.38;100.00
3444;BME280;1736;52.068;6.968;2023-04-30T04:33:33;101844.50;;;4.36;100.00
3444;BME280;1736;52.068;6.968;2023-04-30T04:36:02;101848.84;;;4.37;100.00
3444;BME280;1736;52.068;6.968;2023-04-30T04:38:29;101849.69;;;4.37;100.00
3444;BME280;1736;52.068;6.968;2023-04-30T04:40:55;101856.81;;;4.35;100.00
3444;BME280;1736;52.068;6.968;2023-04-30T04:43:22;101852.38;;;4.36;100.00
3444;BME280;1736;52.068;6.968;2023-04-30T04:45:48;101842.63;;;4.39;100.00
3444;BME280;1736;52.068;6.968;2023-04-30T04:48:16;101850.09;;;4.50;100.00
3444;BME280;1736;52.068;6.968;2023-04-30T04:50:42;101857.16;;;4.48;100.00
3444;BME280;1736;52.068;6.968;2023-04-30T04:53:10;101857.88;;;4.51;100.00
3444;BME280;1736;52.068;6.968;2023-04-30T04:55:37;101859.47;;;4.55;100.00
3444;BME280;1736;52.068;6.968;2023-04-30T04:58:04;101860.22;;;4.59;100.00
3444;BME280;1736;52.068;6.968;2023-04-30T05:00:30;101861.69;;;4.66;100.00
3444;BME280;1736;52.068;6.968;2023-04-30T05:02:57;101861.44;;;4.72;100.00
3444;BME280;1736;52.068;6.968;2023-04-30T05:05:24;101857.75;;;4.76;100.00
3444;BME280;1736;52.068;6.968;2023-04-30T05:07:50;101853.63;;;4.90;100.00
3444;BME280;1736;52.068;6.968;2023-04-30T05:10:20;101859.88;;;5.08;100.00
3444;BME280;1736;52.068;6.968;2023-04-30T05:12:46;101852.00;;;5.28;100.00
3444;BME280;1736;52.068;6.968;2023-04-30T05:15:13;101852.63;;;5.53;100.00
3444;BME280;1736;52.068;6.968;2023-04-30T05:17:39;101864.63;;;5.79;100.00
3444;BME280;1736;52.068;6.968;2023-04-30T05:20:07;101859.97;;;6.04;100.00
3444;BME280;1736;52.068;6.968;2023-04-30T05:22:34;101862.97;;;6.33;100.00
3444;BME280;1736;52.068;6.968;2023-04-30T05:25:00;101863.88;;;6.68;100.00
3444;BME280;1736;52.068;6.968;2023-04-30T05:27:28;101859.03;;;7.11;100.00
3444;BME280;1736;52.068;6.968;2023-04-30T05:29:54;101870.03;;;7.36;100.00
3444;BME280;1736;52.068;6.968;2023-04-30T05:32:21;101873.63;;;7.68;100.00
3444;BME280;1736;52.068;6.968;2023-04-30T05:34:47;101871.56;;;7.90;98.43
3444;BME280;1736;52.068;6.968;2023-04-30T05:37:14;101871.56;;;8.05;96.75
3444;BME280;1736;52.068;6.968;2023-04-30T05:39:42;101869.41;;;8.44;95.99
3444;BME280;1736;52.068;6.968;2023-04-30T05:42:08;101884.75;;;8.69;93.55
3444;BME280;1736;52.068;6.968;2023-04-30T05:44:36;101878.91;;;8.93;91.18
3444;BME280;1736;52.068;6.968;2023-04-30T05:47:02;101881.13;;;9.15;89.71
3444;BME280;1736;52.068;6.968;2023-04-30T05:49:29;101883.34;;;9.36;88.10
3444;BME280;1736;52.068;6.968;2023-04-30T05:51:55;101888.88;;;9.61;87.62
3444;BME280;1736;52.068;6.968;2023-04-30T05:54:24;101890.03;;;9.71;86.17
3444;BME280;1736;52.068;6.968;2023-04-30T05:56:50;101892.22;;;9.79;85.21
3444;BME280;1736;52.068;6.968;2023-04-30T05:59:17;101891.94;;;9.97;83.34
3444;BME280;1736;52.068;6.968;2023-04-30T06:01:45;101891.38;;;10.06;82.29
3444;BME280;1736;52.068;6.968;2023-04-30T06:04:11;101891.75;;;9.86;83.10
3444;BME280;1736;52.068;6.968;2023-04-30T06:06:38;101896.69;;;10.06;83.59
3444;BME280;1736;52.068;6.968;2023-04-30T06:09:04;101903.09;;;10.30;83.08
3444;BME280;1736;52.068;6.968;2023-04-30T06:11:31;101901.63;;;10.53;81.74
3444;BME280;1736;52.068;6.968;2023-04-30T06:13:58;101892.84;;;10.38;80.65
3444;BME280;1736;52.068;6.968;2023-04-30T06:16:24;101895.91;;;10.18;78.37
3444;BME280;1736;52.068;6.968;2023-04-30T06:18:52;101891.28;;;10.63;79.42
3444;BME280;1736;52.068;6.968;2023-04-30T06:21:18;101907.63;;;10.57;78.05
3444;BME280;1736;52.068;6.968;2023-04-30T06:23:45;101907.34;;;10.47;78.78
3444;BME280;1736;52.068;6.968;2023-04-30T06:26:12;101908.88;;;10.51;78.43
3444;BME280;1736;52.068;6.968;2023-04-30T06:28:39;101908.13;;;10.76;77.41
3444;BME280;1736;52.068;6.968;2023-04-30T06:31:06;101902.06;;;10.74;77.03
3444;BME280;1736;52.068;6.968;2023-04-30T06:33:32;101903.31;;;10.95;76.43
3444;BME280;1736;52.068;6.968;2023-04-30T06:36:00;101912.16;;;11.08;75.54
3444;BME280;1736;52.068;6.968;2023-04-30T06:38:26;101912.59;;;11.14;74.80
3444;BME280;1736;52.068;6.968;2023-04-30T06:40:53;101917.44;;;11.22;74.10
3444;BME280;1736;52.068;6.968;2023-04-30T06:43:20;101914.78;;;11.34;73.17
3444;BME280;1736;52.068;6.968;2023-04-30T06:45:46;101902.53;;;11.19;73.63
3444;BME280;1736;52.068;6.968;2023-04-30T06:48:13;101906.56;;;11.25;73.33
3444;BME280;1736;52.068;6.968;2023-04-30T06:50:39;101909.81;;;11.55;73.44
3444;BME280;1736;52.068;6.968;2023-04-30T06:53:11;101905.59;;;11.65;71.49
3444;BME280;1736;52.068;6.968;2023-04-30T06:55:37;101911.50;;;11.31;71.65
3444;BME280;1736;52.068;6.968;2023-04-30T06:58:04;101909.59;;;11.45;71.95
3444;BME280;1736;52.068;6.968;2023-04-30T07:00:37;101913.03;;;11.60;72.34
3444;BME280;1736;52.068;6.968;2023-04-30T07:03:03;101909.34;;;11.75;70.91
3444;BME280;1736;52.068;6.968;2023-04-30T07:05:30;101911.72;;;11.40;71.68
3444;BME280;1736;52.068;6.968;2023-04-30T07:07:56;101918.84;;;11.01;72.89
3444;BME280;1736;52.068;6.968;2023-04-30T07:10:27;101914.59;;;11.37;72.49
3444;BME280;1736;52.068;6.968;2023-04-30T07:12:53;101923.53;;;11.36;72.29
3444;BME280;1736;52.068;6.968;2023-04-30T07:15:20;101916.47;;;11.62;72.26
3444;BME280;1736;52.068;6.968;2023-04-30T07:17:47;101920.19;;;11.72;71.52
3444;BME280;1736;52.068;6.968;2023-04-30T07:20:13;101923.84;;;11.57;71.47
3444;BME280;1736;52.068;6.968;2023-04-30T07:22:40;101924.00;;;11.68;71.34
3444;BME280;1736;52.068;6.968;2023-04-30T07:25:08;101933.38;;;11.73;71.00
3444;BME280;1736;52.068;6.968;2023-04-30T07:27:36;101916.78;;;11.70;71.40
3444;BME280;1736;52.068;6.968;2023-04-30T07:30:04;101910.09;;;11.89;70.74
3444;BME280;1736;52.068;6.968;2023-04-30T07:32:30;101917.31;;;11.87;71.13
3444;BME280;1736;52.068;6.968;2023-04-30T07:34:57;101924.22;;;11.90;70.49
3444;BME280;1736;52.068;6.968;2023-04-30T07:37:24;101922.09;;;12.20;70.14
3444;BME280;1736;52.068;6.968;2023-04-30T07:39:51;101921.91;;;12.46;69.22
3444;BME280;1736;52.068;6.968;2023-04-30T07:42:17;101919.16;;;12.48;69.03
3444;BME280;1736;52.068;6.968;2023-04-30T07:44:45;101923.16;;;12.05;68.72
3444;BME280;1736;52.068;6.968;2023-04-30T07:47:13;101922.59;;;12.25;68.49
3444;BME280;1736;52.068;6.968;2023-04-30T07:49:39;101927.72;;;12.15;68.21
3444;BME280;1736;52.068;6.968;2023-04-30T07:52:06;101916.97;;;11.79;69.70
3444;BME280;1736;52.068;6.968;2023-04-30T07:54:35;101923.66;;;12.10;69.41
3444;BME280;1736;52.068;6.968;2023-04-30T07:57:02;101918.34;;;12.10;68.78
3444;BME280;1736;52.068;6.968;2023-04-30T07:59:29;101926.69;;;12.54;69.50
3444;BME280;1736;52.068;6.968;2023-04-30T08:01:57;101926.91;;;12.51;67.92
3444;BME280;1736;52.068;6.968;2023-04-30T08:04:24;101930.41;;;12.64;67.15
3444;BME280;1736;52.068;6.968;2023-04-30T08:06:51;101916.88;;;12.90;65.99
3444;BME280;1736;52.068;6.968;2023-04-30T08:09:17;101921.81;;;12.84;66.01
3444;BME280;1736;52.068;6.968;2023-04-30T08:11:43;101924.50;;;12.95;67.29
3444;BME280;1736;52.068;6.968;2023-04-30T08:14:10;101917.03;;;12.40;66.49
3444;BME280;1736;52.068;6.968;2023-04-30T08:16:36;101929.44;;;12.65;66.36
3444;BME280;1736;52.068;6.968;2023-04-30T08:19:04;101932.78;;;12.43;65.63
3444;BME280;1736;52.068;6.968;2023-04-30T08:21:31;101928.91;;;12.60;65.15
3444;BME280;1736;52.068;6.968;2023-04-30T08:23:57;101927.34;;;12.81;66.04
3444;BME280;1736;52.068;6.968;2023-04-30T08:26:24;101940.75;;;12.56;65.50
3444;BME280;1736;52.068;6.968;2023-04-30T08:28:51;101934.16;;;12.85;63.88
3444;BME280;1736;52.068;6.968;2023-04-30T08:31:17;101932.00;;;12.90;64.33
3444;BME280;1736;52.068;6.968;2023-04-30T08:33:44;101933.56;;;12.69;64.32
3444;BME280;1736;52.068;6.968;2023-04-30T08:36:11;101936.53;;;12.77;65.86
3444;BME280;1736;52.068;6.968;2023-04-30T08:38:38;101931.41;;;12.74;65.68
3444;BME280;1736;52.068;6.968;2023-04-30T08:41:08;101932.81;;;13.03;62.88
3444;BME280;1736;52.068;6.968;2023-04-30T08:43:35;101927.25;;;13.06;63.13
3444;BME280;1736;52.068;6.968;2023-04-30T08:46:02;101936.91;;;12.60;63.99
3444;BME280;1736;52.068;6.968;2023-04-30T08:48:29;101929.13;;;12.57;64.48
3444;BME280;1736;52.068;6.968;2023-04-30T08:50:58;101932.72;;;12.68;64.94
3444;BME280;1736;52.068;6.968;2023-04-30T08:53:26;101929.03;;;12.82;65.32
3444;BME280;1736;52.068;6.968;2023-04-30T08:55:53;101926.97;;;12.62;63.92
3444;BME280;1736;52.068;6.968;2023-04-30T08:58:19;101930.72;;;12.83;61.92
3444;BME280;1736;52.068;6.968;2023-04-30T09:00:46;101929.50;;;12.40;63.41
3444;BME280;1736;52.068;6.968;2023-04-30T09:03:12;101926.69;;;12.54;63.61
3444;BME280;1736;52.068;6.968;2023-04-30T09:05:39;101933.28;;;12.61;62.56
3444;BME280;1736;52.068;6.968;2023-04-30T09:08:06;101928.25;;;12.69;62.58
3444;BME280;1736;52.068;6.968;2023-04-30T09:10:34;101932.97;;;12.53;61.43
3444;BME280;1736;52.068;6.968;2023-04-30T09:13:03;101940.59;;;12.70;61.29
3444;BME280;1736;52.068;6.968;2023-04-30T09:15:31;101941.34;;;13.08;60.50
3444;BME280;1736;52.068;6.968;2023-04-30T09:18:07;101948.84;;;13.37;60.05
3444;BME280;1736;52.068;6.968;2023-04-30T09:20:34;101943.03;;;12.73;61.67
3444;BME280;1736;52.068;6.968;2023-04-30T09:23:05;101941.09;;;12.75;61.90
3444;BME280;1736;52.068;6.968;2023-04-30T09:25:39;101941.84;;;12.77;62.35
3444;BME280;1736;52.068;6.968;2023-04-30T09:28:07;101938.22;;;13.14;62.42
3444;BME280;1736;52.068;6.968;2023-04-30T09:30:34;101927.94;;;13.55;61.76
3444;BME280;1736;52.068;6.968;2023-04-30T09:33:01;101920.94;;;13.76;61.93
3444;BME280;1736;52.068;6.968;2023-04-30T09:35:28;101908.56;;;13.75;60.76
3444;BME280;1736;52.068;6.968;2023-04-30T09:37:55;101910.28;;;13.30;61.66
3444;BME280;1736;52.068;6.968;2023-04-30T09:40:33;101909.16;;;13.22;62.77
3444;BME280;1736;52.068;6.968;2023-04-30T09:43:02;101917.34;;;13.08;61.97
3444;BME280;1736;52.068;6.968;2023-04-30T09:45:38;101920.78;;;13.21;62.46
3444;BME280;1736;52.068;6.968;2023-04-30T09:48:07;101910.03;;;13.22;62.33
3444;BME280;1736;52.068;6.968;2023-04-30T09:50:37;101912.91;;;13.54;62.41
3444;BME280;1736;52.068;6.968;2023-04-30T09:53:04;101908.09;;;13.70;61.39
3444;BME280;1736;52.068;6.968;2023-04-30T09:55:32;101906.13;;;13.72;61.62
3444;BME280;1736;52.068;6.968;2023-04-30T09:58:02;101908.13;;;13.46;61.05
3444;BME280;1736;52.068;6.968;2023-04-30T10:00:31;101895.84;;;13.67;62.03
3444;BME280;1736;52.068;6.968;2023-04-30T10:03:00;101894.00;;;13.68;60.98
3444;BME280;1736;52.068;6.968;2023-04-30T10:05:30;101892.69;;;13.73;61.35
3444;BME280;1736;52.068;6.968;2023-04-30T10:07:58;101894.28;;;13.87;61.02
3444;BME280;1736;52.068;6.968;2023-04-30T10:10:25;101902.31;;;13.98;60.01
3444;BME280;1736;52.068;6.968;2023-04-30T10:12:55;101889.06;;;13.96;59.24
3444;BME280;1736;52.068;6.968;2023-04-30T10:15:30;101879.47;;;13.72;59.84
3444;BME280;1736;52.068;6.968;2023-04-30T10:18:00;101890.16;;;13.94;61.10
3444;BME280;1736;52.068;6.968;2023-04-30T10:20:28;101881.41;;;13.92;59.49
3444;BME280;1736;52.068;6.968;2023-04-30T10:22:57;101881.19;;;13.95;60.22
3444;BME280;1736;52.068;6.968;2023-04-30T10:25:25;101881.31;;;13.71;59.87
3444;BME280;1736;52.068;6.968;2023-04-30T10:27:52;101868.19;;;13.68;60.58
3444;BME280;1736;52.068;6.968;2023-04-30T10:30:21;101866.16;;;13.94;60.49
3444;BME280;1736;52.068;6.968;2023-04-30T10:32:58;101868.72;;;14.28;61.05
3444;BME280;1736;52.068;6.968;2023-04-30T10:35:34;101863.84;;;14.22;60.17
3444;BME280;1736;52.068;6.968;2023-04-30T10:38:10;101858.50;;;14.22;59.04
3444;BME280;1736;52.068;6.968;2023-04-30T10:40:38;101855.09;;;14.31;59.80
3444;BME280;1736;52.068;6.968;2023-04-30T10:43:04;101848.28;;;14.27;58.48
3444;BME280;1736;52.068;6.968;2023-04-30T10:45:34;101843.47;;;14.32;58.90
3444;BME280;1736;52.068;6.968;2023-04-30T10:48:04;101843.69;;;14.40;58.70
3444;BME280;1736;52.068;6.968;2023-04-30T10:50:31;101843.84;;;14.70;58.67
3444;BME280;1736;52.068;6.968;2023-04-30T10:53:01;101842.81;;;14.82;59.38
3444;BME280;1736;52.068;6.968;2023-04-30T10:55:29;101838.84;;;14.66;58.61
3444;BME280;1736;52.068;6.968;2023-04-30T10:57:56;101840.03;;;14.52;59.17
3444;BME280;1736;52.068;6.968;2023-04-30T11:00:25;101833.06;;;14.50;59.72
3444;BME280;1736;52.068;6.968;2023-04-30T11:02:56;101828.66;;;14.71;59.94
3444;BME280;1736;52.068;6.968;2023-04-30T11:05:36;101825.50;;;14.66;59.02
3444;BME280;1736;52.068;6.968;2023-04-30T11:08:03;101828.00;;;14.47;59.36
3444;BME280;1736;52.068;6.968;2023-04-30T11:10:32;101821.81;;;14.35;60.28
3444;BME280;1736;52.068;6.968;2023-04-30T11:13:03;101810.47;;;14.54;60.31
3444;BME280;1736;52.068;6.968;2023-04-30T11:15:33;101817.13;;;14.70;59.21
3444;BME280;1736;52.068;6.968;2023-04-30T11:18:00;101812.84;;;14.79;59.46
3444;BME280;1736;52.068;6.968;2023-04-30T11:20:27;101800.19;;;14.81;57.55
3444;BME280;1736;52.068;6.968;2023-04-30T11:23:13;101801.59;;;14.64;58.40
3444;BME280;1736;52.068;6.968;2023-04-30T11:25:40;101819.56;;;14.62;57.78
3444;BME280;1736;52.068;6.968;2023-04-30T11:28:10;101808.41;;;14.68;57.33
3444;BME280;1736;52.068;6.968;2023-04-30T11:30:38;101806.75;;;14.77;59.40
3444;BME280;1736;52.068;6.968;2023-04-30T11:33:05;101813.78;;;14.78;58.52
3444;BME280;1736;52.068;6.968;2023-04-30T11:35:32;101800.03;;;14.93;56.92
3444;BME280;1736;52.068;6.968;2023-04-30T11:37:59;101795.56;;;14.83;59.20
3444;BME280;1736;52.068;6.968;2023-04-30T11:40:34;101797.59;;;14.90;58.79
3444;BME280;1736;52.068;6.968;2023-04-30T11:43:00;101800.38;;;14.89;55.71
3444;BME280;1736;52.068;6.968;2023-04-30T11:45:27;101798.09;;;14.84;55.76
3444;BME280;1736;52.068;6.968;2023-04-30T11:47:55;101792.81;;;14.94;55.87
3444;BME280;1736;52.068;6.968;2023-04-30T11:50:32;101787.94;;;14.78;56.39
3444;BME280;1736;52.068;6.968;2023-04-30T11:52:59;101785.78;;;14.93;57.87
3444;BME280;1736;52.068;6.968;2023-04-30T11:55:29;101786.75;;;15.12;58.23
3444;BME280;1736;52.068;6.968;2023-04-30T11:57:56;101769.81;;;15.02;58.09
3444;BME280;1736;52.068;6.968;2023-04-30T12:00:25;101772.63;;;15.01;57.38
3444;BME280;1736;52.068;6.968;2023-04-30T12:02:52;101769.41;;;15.07;58.30
3444;BME280;1736;52.068;6.968;2023-04-30T12:05:20;101772.88;;;15.18;57.47
3444;BME280;1736;52.068;6.968;2023-04-30T12:07:48;101771.03;;;15.19;56.77
3444;BME280;1736;52.068;6.968;2023-04-30T12:10:17;101771.50;;;15.03;57.13
3444;BME280;1736;52.068;6.968;2023-04-30T12:12:46;101765.25;;;15.14;57.13
3444;BME280;1736;52.068;6.968;2023-04-30T12:15:14;101760.69;;;15.25;55.98
3444;BME280;1736;52.068;6.968;2023-04-30T12:17:41;101757.59;;;15.30;55.70
3444;BME280;1736;52.068;6.968;2023-04-30T12:22:35;101759.16;;;15.53;56.62
3444;BME280;1736;52.068;6.968;2023-04-30T12:25:05;101758.63;;;15.59;57.06
3444;BME280;1736;52.068;6.968;2023-04-30T12:27:32;101757.28;;;15.74;55.71
3444;BME280;1736;52.068;6.968;2023-04-30T12:30:02;101753.75;;;15.74;55.92
3444;BME280;1736;52.068;6.968;2023-04-30T12:32:36;101757.84;;;15.68;54.29
3444;BME280;1736;52.068;6.968;2023-04-30T12:35:03;101752.06;;;15.73;54.19
3444;BME280;1736;52.068;6.968;2023-04-30T12:37:30;101743.03;;;15.74;55.52
3444;BME280;1736;52.068;6.968;2023-04-30T12:39:56;101747.44;;;15.84;54.68
3444;BME280;1736;52.068;6.968;2023-04-30T12:42:24;101753.94;;;15.91;54.93
3444;BME280;1736;52.068;6.968;2023-04-30T12:44:50;101746.19;;;15.88;54.23
3444;BME280;1736;52.068;6.968;2023-04-30T12:47:18;101742.09;;;15.84;54.39
3444;BME280;1736;52.068;6.968;2023-04-30T12:49:45;101744.53;;;15.97;55.63
3444;BME280;1736;52.068;6.968;2023-04-30T12:52:12;101743.50;;;15.79;55.22
3444;BME280;1736;52.068;6.968;2023-04-30T12:54:39;101734.75;;;15.77;53.35
3444;BME280;1736;52.068;6.968;2023-04-30T12:57:08;101734.84;;;16.05;53.08
3444;BME280;1736;52.068;6.968;2023-04-30T12:59:37;101720.31;;;16.08;53.09
3444;BME280;1736;52.068;6.968;2023-04-30T13:02:05;101732.59;;;16.10;53.00
3444;BME280;1736;52.068;6.968;2023-04-30T13:04:33;101722.13;;;16.07;53.69
3444;BME280;1736;52.068;6.968;2023-04-30T13:07:00;101720.56;;;15.95;52.90
3444;BME280;1736;52.068;6.968;2023-04-30T13:09:27;101722.34;;;15.76;53.81
3444;BME280;1736;52.068;6.968;2023-04-30T13:11:53;101724.22;;;15.94;53.00
3444;BME280;1736;52.068;6.968;2023-04-30T13:14:20;101713.34;;;15.77;53.63
3444;BME280;1736;52.068;6.968;2023-04-30T13:16:46;101717.63;;;15.98;54.63
3444;BME280;1736;52.068;6.968;2023-04-30T13:19:13;101716.78;;;16.07;53.70
3444;BME280;1736;52.068;6.968;2023-04-30T13:21:41;101706.38;;;16.23;54.55